Time;durP1;ratioP1;P1;durP2;ratioP2;P2;SDS_P1;SDS_P2;PMS_P1;PMS_P2;Temp;Humidity;BMP_temperature;BMP_pressure;BME280_temperature;BME280_humidity;BME280_pressure;Samples;Min_cycle;Max_cycle;Signal;HPM_P1;HPM_P2
2023/09/13 00:02:14;;;;;;;7.68;1.23;;;18.30;99.90;;;;;;4984805;28;20056;-81
2023/09/13 00:04:40;;;;;;;5.40;1.52;;;18.30;99.90;;;;;;4985343;28;20050;-79
2023/09/13 00:07:05;;;;;;;7.50;1.73;;;18.30;99.90;;;;;;4998620;28;20053;-81
2023/09/13 00:09:31;;;;;;;5.07;1.45;;;18.30;99.90;;;;;;5005449;28;20100;-82
2023/09/13 00:11:56;;;;;;;2.50;1.15;;;18.20;99.90;;;;;;4972353;28;20050;-82
2023/09/13 00:14:22;;;;;;;3.90;1.88;;;18.20;99.90;;;;;;4967513;28;20112;-82
2023/09/13 00:16:50;;;;;;;6.35;0.98;;;18.20;99.90;;;;;;4968362;28;20057;-81
2023/09/13 00:19:16;;;;;;;4.10;1.30;;;18.20;99.90;;;;;;4984514;28;20101;-80
2023/09/13 00:21:42;;;;;;;4.72;1.25;;;18.20;99.90;;;;;;4985112;28;20038;-80
2023/09/13 00:24:11;;;;;;;5.10;0.90;;;18.10;99.90;;;;;;4986218;28;20532;-81
2023/09/13 00:26:37;;;;;;;2.58;0.90;;;18.10;99.90;;;;;;4985525;28;20085;-80
2023/09/13 00:29:03;;;;;;;2.53;1.13;;;18.10;99.90;;;;;;4967897;28;20505;-82
2023/09/13 00:31:28;;;;;;;2.53;0.95;;;18.00;99.90;;;;;;4985644;28;20085;-81
2023/09/13 00:33:54;;;;;;;3.90;1.27;;;18.00;99.90;;;;;;4984640;28;20374;-81
2023/09/13 00:36:19;;;;;;;2.95;1.23;;;18.10;99.90;;;;;;4981188;28;20057;-80
2023/09/13 00:38:45;;;;;;;6.25;1.20;;;18.10;99.90;;;;;;4984654;28;20101;-80
2023/09/13 00:41:11;;;;;;;6.55;1.67;;;18.00;99.90;;;;;;4970383;28;20475;-80
2023/09/13 00:43:36;;;;;;;2.42;1.13;;;18.00;99.90;;;;;;4999996;28;20497;-80
2023/09/13 00:46:04;;;;;;;2.78;1.15;;;18.00;99.90;;;;;;4985657;28;20069;-81
2023/09/13 00:48:30;;;;;;;2.15;1.20;;;18.00;99.90;;;;;;4983739;28;20053;-82
2023/09/13 00:50:58;;;;;;;9.07;1.80;;;18.00;99.90;;;;;;4983568;28;20050;-79
2023/09/13 00:53:24;;;;;;;6.13;1.15;;;18.00;99.90;;;;;;4983786;28;20551;-80
2023/09/13 00:55:53;;;;;;;1.73;1.23;;;18.00;99.90;;;;;;4985535;28;20046;-79
2023/09/13 00:58:19;;;;;;;1.40;1.27;;;18.00;99.90;;;;;;4982452;28;20101;-79
2023/09/13 01:00:46;;;;;;;1.52;1.08;;;17.90;99.90;;;;;;4983817;28;20490;-81
2023/09/13 01:03:15;;;;;;;3.88;1.30;;;17.90;99.90;;;;;;4983952;28;20054;-81
2023/09/13 01:08:15;;;;;;;3.03;1.30;;;17.90;99.90;;;;;;5039979;28;20055;-81
2023/09/13 01:10:41;;;;;;;3.30;1.10;;;17.90;99.90;;;;;;5042983;28;20055;-82
2023/09/13 01:13:07;;;;;;;5.78;1.35;;;17.90;99.90;;;;;;5042631;28;20049;-82
2023/09/13 01:15:39;;;;;;;6.38;1.50;;;17.90;99.90;;;;;;5059334;28;20047;-81
2023/09/13 01:18:05;;;;;;;2.15;0.93;;;17.80;99.90;;;;;;5044704;28;20076;-81
2023/09/13 01:20:52;;;;;;;3.88;1.30;;;17.80;99.90;;;;;;5042350;28;20072;-81
2023/09/13 01:23:49;;;;;;;4.10;1.33;;;17.80;99.90;;;;;;5044213;28;20048;-82
2023/09/13 01:26:44;;;;;;;3.13;1.25;;;17.80;99.90;;;;;;5042957;28;20064;-81
2023/09/13 01:29:16;;;;;;;1.60;0.82;;;17.80;99.90;;;;;;5041888;28;20049;-81
2023/09/13 01:31:43;;;;;;;1.17;0.98;;;17.80;99.90;;;;;;5042655;28;20063;-80
2023/09/13 01:34:10;;;;;;;1.70;1.17;;;17.80;99.90;;;;;;5043800;28;20477;-80
2023/09/13 01:36:37;;;;;;;2.08;1.65;;;17.70;99.90;;;;;;5044101;28;20049;-82
2023/09/13 01:39:04;;;;;;;5.90;1.15;;;17.70;99.90;;;;;;5044528;28;20124;-80
2023/09/13 01:41:58;;;;;;;2.65;0.90;;;17.70;99.90;;;;;;5043637;28;20041;-81
2023/09/13 01:44:26;;;;;;;1.65;0.60;;;17.70;99.90;;;;;;5040469;28;20064;-82
2023/09/13 01:46:53;;;;;;;3.65;1.00;;;17.70;99.90;;;;;;5042603;28;20080;-80
2023/09/13 01:49:20;;;;;;;2.78;1.23;;;17.70;99.90;;;;;;5042574;28;20062;-80
2023/09/13 01:51:46;;;;;;;3.08;1.20;;;17.60;99.90;;;;;;5042356;28;20179;-81
2023/09/13 01:54:12;;;;;;;3.17;1.30;;;17.70;99.90;;;;;;5025697;28;20124;-81
2023/09/13 01:56:38;;;;;;;2.35;1.10;;;17.60;99.90;;;;;;5025868;28;20053;-80
2023/09/13 01:59:04;;;;;;;1.85;1.20;;;17.60;99.90;;;;;;5042936;28;20082;-81
2023/09/13 02:01:29;;;;;;;1.63;0.70;;;17.60;99.90;;;;;;5043209;28;20041;-81
2023/09/13 02:03:56;;;;;;;2.72;1.30;;;17.60;99.90;;;;;;5025233;28;20477;-81
2023/09/13 02:06:22;;;;;;;1.70;0.77;;;17.60;99.90;;;;;;5047073;28;20084;-81
2023/09/13 02:08:47;;;;;;;5.07;1.67;;;17.60;99.90;;;;;;5063721;28;20080;-80
2023/09/13 02:11:13;;;;;;;2.00;0.95;;;17.60;99.90;;;;;;5045136;28;20124;-80
2023/09/13 02:13:38;;;;;;;3.22;1.15;;;17.60;99.90;;;;;;5044568;28;20068;-80
2023/09/13 02:16:04;;;;;;;2.03;0.80;;;17.60;99.90;;;;;;5045539;28;20549;-81
2023/09/13 02:18:30;;;;;;;1.27;0.63;;;17.50;99.90;;;;;;5045086;28;20111;-82
2023/09/13 02:20:56;;;;;;;2.17;0.60;;;17.50;99.90;;;;;;5063135;28;20116;-82
2023/09/13 02:23:22;;;;;;;3.33;0.90;;;17.50;99.90;;;;;;5043893;28;20070;-82
2023/09/13 02:25:47;;;;;;;0.70;0.70;;;17.50;99.90;;;;;;5044897;28;20145;-82
2023/09/13 02:28:13;;;;;;;1.85;0.88;;;17.40;99.90;;;;;;5044135;28;20043;-82
2023/09/13 02:30:39;;;;;;;2.58;1.15;;;17.40;99.90;;;;;;5044976;28;20044;-80
2023/09/13 02:33:06;;;;;;;1.88;0.70;;;17.40;99.90;;;;;;5029001;28;20445;-82
2023/09/13 02:35:32;;;;;;;1.80;1.20;;;17.40;99.90;;;;;;5063055;28;20043;-81
2023/09/13 02:37:59;;;;;;;2.67;1.35;;;17.30;99.90;;;;;;5045220;28;20040;-80
2023/09/13 02:40:24;;;;;;;4.47;2.45;;;17.30;99.90;;;;;;5044930;28;20733;-83
2023/09/13 02:42:50;;;;;;;2.92;1.00;;;17.30;99.90;;;;;;5044604;28;20044;-82
2023/09/13 02:45:16;;;;;;;4.35;1.40;;;17.30;99.90;;;;;;5045616;28;20440;-83
2023/09/13 02:47:43;;;;;;;4.57;2.03;;;17.20;99.90;;;;;;5063053;28;20086;-83
2023/09/13 02:50:09;;;;;;;4.60;1.73;;;17.20;99.90;;;;;;5045659;28;20044;-82
2023/09/13 02:52:35;;;;;;;3.83;1.23;;;17.10;99.90;;;;;;5064070;28;20131;-83
2023/09/13 02:55:05;;;;;;;5.05;1.40;;;16.90;99.90;;;;;;5045583;28;20124;-82
2023/09/13 02:57:31;;;;;;;3.10;1.42;;;16.90;99.90;;;;;;5062196;28;20443;-83
2023/09/13 02:59:57;;;;;;;1.52;1.17;;;16.80;99.90;;;;;;5064573;28;20028;-84
2023/09/13 03:02:23;;;;;;;0.98;0.93;;;16.70;99.90;;;;;;5064093;28;20101;-85
2023/09/13 03:04:52;;;;;;;2.03;0.93;;;16.70;99.90;;;;;;5064103;28;20036;-84
2023/09/13 03:07:18;;;;;;;4.53;1.67;;;16.60;99.90;;;;;;5063753;28;20044;-84
2023/09/13 03:09:45;;;;;;;8.60;1.50;;;16.60;99.90;;;;;;5064849;28;20094;-82
2023/09/13 03:12:12;;;;;;;2.42;1.02;;;16.60;99.90;;;;;;5063069;28;20218;-84
2023/09/13 03:14:37;;;;;;;1.30;1.15;;;16.60;99.90;;;;;;5065432;28;20054;-83
2023/09/13 03:17:03;;;;;;;3.53;1.35;;;16.60;99.90;;;;;;5064401;28;20109;-85
2023/09/13 03:19:32;;;;;;;3.75;1.10;;;16.60;99.90;;;;;;5064393;28;20536;-85
2023/09/13 03:21:58;;;;;;;5.60;0.98;;;16.60;99.90;;;;;;5046382;28;20049;-83
2023/09/13 03:24:24;;;;;;;5.05;0.93;;;16.50;99.90;;;;;;5045426;28;20041;-81
2023/09/13 03:26:50;;;;;;;1.83;0.95;;;16.50;99.90;;;;;;5044995;28;20094;-83
2023/09/13 03:29:15;;;;;;;4.88;1.27;;;16.40;99.90;;;;;;5064421;28;20044;-85
2023/09/13 03:31:41;;;;;;;4.05;0.73;;;16.40;99.90;;;;;;5049425;28;20083;-87
2023/09/13 03:34:07;;;;;;;4.78;0.80;;;16.40;99.90;;;;;;5049475;28;20116;-85
2023/09/13 03:36:33;;;;;;;3.58;1.17;;;16.30;99.90;;;;;;5067989;28;20613;-80
2023/09/13 03:38:59;;;;;;;2.35;1.00;;;16.30;99.90;;;;;;5067950;28;20090;-86
2023/09/13 03:41:27;;;;;;;5.25;1.02;;;16.30;99.90;;;;;;5068593;28;20033;-85
2023/09/13 03:43:53;;;;;;;2.10;1.15;;;16.20;99.90;;;;;;5049671;28;20088;-85
2023/09/13 03:46:20;;;;;;;2.40;0.93;;;16.20;99.90;;;;;;5067179;28;20068;-85
2023/09/13 03:48:45;;;;;;;4.97;1.00;;;16.20;99.90;;;;;;5050068;28;20047;-81
2023/09/13 03:51:11;;;;;;;2.63;0.90;;;16.20;99.90;;;;;;5049775;28;20037;-85
2023/09/13 03:53:37;;;;;;;1.90;1.27;;;16.20;99.90;;;;;;5068766;28;20522;-83
2023/09/13 03:56:04;;;;;;;2.00;1.20;;;16.10;99.90;;;;;;5049929;28;20048;-82
2023/09/13 03:58:30;;;;;;;6.05;1.65;;;16.10;99.90;;;;;;5068296;28;20060;-85
2023/09/13 04:00:56;;;;;;;9.75;1.33;;;16.10;99.90;;;;;;5068847;28;20040;-85
2023/09/13 04:03:23;;;;;;;4.93;1.58;;;16.10;99.90;;;;;;5068576;28;20173;-87
2023/09/13 04:05:49;;;;;;;5.70;1.42;;;16.10;99.90;;;;;;5050228;28;20546;-86
2023/09/13 04:08:14;;;;;;;2.35;1.10;;;16.00;99.90;;;;;;5051047;28;20059;-87
2023/09/13 04:10:40;;;;;;;3.97;1.33;;;15.90;99.90;;;;;;5051452;28;20051;-86
2023/09/13 04:13:06;;;;;;;5.45;1.00;;;15.90;99.90;;;;;;5050609;28;20048;-85
2023/09/13 04:15:31;;;;;;;5.90;0.93;;;15.80;99.90;;;;;;5050464;28;20483;-86
2023/09/13 04:17:57;;;;;;;4.47;0.90;;;15.70;99.90;;;;;;5068765;28;20036;-85
2023/09/13 04:20:23;;;;;;;7.78;1.27;;;15.70;99.90;;;;;;5050429;28;20072;-87
2023/09/13 04:22:49;;;;;;;7.82;1.63;;;15.60;99.90;;;;;;5050709;28;20058;-87
2023/09/13 04:25:15;;;;;;;8.75;1.20;;;15.60;99.90;;;;;;5033833;28;20179;-87
2023/09/13 04:27:48;;;;;;;3.90;1.48;;;15.50;99.90;;;;;;5066473;28;20063;-85
2023/09/13 04:30:17;;;;;;;10.55;2.25;;;15.50;99.90;;;;;;5048745;28;20044;-85
2023/09/13 04:32:42;;;;;;;13.45;1.98;;;15.50;99.90;;;;;;5032476;28;20123;-84
2023/09/13 04:35:08;;;;;;;4.72;1.73;;;15.50;99.90;;;;;;5048625;28;20135;-83
2023/09/13 04:37:34;;;;;;;6.50;1.63;;;15.40;99.90;;;;;;5048671;28;20047;-82
2023/09/13 04:40:04;;;;;;;8.02;1.25;;;15.30;99.90;;;;;;5048735;28;20574;-86
2023/09/13 04:42:30;;;;;;;4.32;1.10;;;15.30;99.90;;;;;;5047643;28;20055;-83
2023/09/13 04:44:55;;;;;;;4.45;1.60;;;15.30;99.90;;;;;;5066913;28;20036;-84
2023/09/13 04:47:21;;;;;;;5.55;1.33;;;15.20;99.90;;;;;;5066041;28;20074;-83
2023/09/13 04:49:46;;;;;;;3.97;1.67;;;15.00;99.90;;;;;;5063059;28;20610;-84
2023/09/13 04:52:13;;;;;;;8.32;1.20;;;15.00;99.90;;;;;;5045701;28;20617;-86
2023/09/13 04:54:38;;;;;;;6.18;1.40;;;14.90;99.90;;;;;;5050043;28;20048;-81
2023/09/13 04:57:05;;;;;;;4.20;1.17;;;14.90;99.90;;;;;;5048879;28;20513;-86
2023/09/13 05:00:00;;;;;;;7.45;1.58;;;14.80;99.90;;;;;;5049088;28;20052;-84
2023/09/13 05:02:26;;;;;;;10.30;1.30;;;14.80;99.90;;;;;;5034646;28;20086;-86
2023/09/13 05:04:52;;;;;;;4.90;2.55;;;14.80;99.90;;;;;;5066474;28;20482;-86
2023/09/13 05:07:17;;;;;;;6.75;1.13;;;14.70;99.90;;;;;;5048494;28;20106;-82
2023/09/13 05:09:43;;;;;;;4.65;1.13;;;14.70;99.90;;;;;;5066883;28;20059;-85
2023/09/13 05:12:09;;;;;;;4.85;1.35;;;14.60;99.90;;;;;;5048098;28;20565;-88
2023/09/13 05:14:36;;;;;;;6.80;1.27;;;14.60;99.90;;;;;;5050231;28;20044;-84
2023/09/13 05:17:02;;;;;;;9.93;1.73;;;14.50;99.90;;;;;;5048101;28;20071;-83
2023/09/13 05:19:27;;;;;;;4.15;1.35;;;14.50;99.90;;;;;;5064714;28;20125;-88
2023/09/13 05:21:53;;;;;;;5.45;1.70;;;14.40;99.90;;;;;;5063993;28;20526;-80
2023/09/13 05:24:19;;;;;;;6.28;1.38;;;14.40;99.90;;;;;;5033203;28;20052;-80
2023/09/13 05:26:44;;;;;;;4.28;2.00;;;14.40;99.90;;;;;;5040729;28;20402;-81
2023/09/13 05:29:10;;;;;;;7.15;1.55;;;14.30;99.90;;;;;;5044844;28;20090;-82
2023/09/13 05:31:36;;;;;;;9.40;1.80;;;14.30;99.90;;;;;;5045921;28;20047;-80
2023/09/13 05:34:01;;;;;;;5.43;2.20;;;14.30;99.90;;;;;;5046166;28;20406;-81
2023/09/13 05:36:27;;;;;;;7.47;2.28;;;14.30;99.90;;;;;;5045427;28;20040;-80
2023/09/13 05:38:53;;;;;;;2.22;1.35;;;14.30;99.90;;;;;;5063667;28;20506;-80
2023/09/13 05:41:18;;;;;;;7.85;1.27;;;14.30;99.90;;;;;;5059482;28;20033;-80
2023/09/13 05:43:44;;;;;;;6.95;2.50;;;14.30;99.90;;;;;;5045130;28;20087;-80
2023/09/13 05:46:10;;;;;;;4.40;1.30;;;14.30;99.90;;;;;;5061145;28;20475;-81
2023/09/13 05:48:36;;;;;;;5.25;2.08;;;14.30;99.90;;;;;;5045603;28;20052;-81
2023/09/13 05:51:03;;;;;;;4.15;1.40;;;14.40;99.90;;;;;;5063389;28;20063;-81
2023/09/13 05:53:30;;;;;;;5.18;1.33;;;14.30;99.90;;;;;;5061612;28;20075;-82
2023/09/13 05:55:56;;;;;;;6.25;1.80;;;14.40;99.90;;;;;;5031364;28;20052;-81
2023/09/13 05:58:22;;;;;;;4.32;1.25;;;14.40;99.90;;;;;;5041792;28;20398;-80
2023/09/13 06:00:49;;;;;;;6.00;1.45;;;14.40;99.90;;;;;;5027496;28;20052;-81
2023/09/13 06:03:19;;;;;;;3.33;1.42;;;14.40;99.90;;;;;;5042427;28;20043;-80
2023/09/13 06:05:49;;;;;;;4.03;1.48;;;14.30;99.90;;;;;;5060025;28;20554;-79
2023/09/13 06:08:15;;;;;;;4.40;1.20;;;14.30;99.90;;;;;;5060494;28;20490;-82
2023/09/13 06:10:40;;;;;;;2.40;0.90;;;14.30;99.90;;;;;;5060257;28;20056;-82
2023/09/13 06:13:07;;;;;;;7.88;1.20;;;14.20;99.90;;;;;;5060685;28;20498;-81
2023/09/13 06:15:33;;;;;;;3.88;1.23;;;14.30;99.90;;;;;;5041534;28;20102;-82
2023/09/13 06:17:58;;;;;;;5.93;1.17;;;14.30;99.90;;;;;;5060692;28;20052;-81
2023/09/13 06:20:24;;;;;;;4.95;1.67;;;14.30;99.90;;;;;;5060507;28;20040;-79
2023/09/13 06:22:50;;;;;;;6.13;1.25;;;14.30;99.90;;;;;;5027191;28;20252;-81
2023/09/13 06:25:19;;;;;;;9.80;1.35;;;14.40;99.90;;;;;;5061114;28;20522;-81
2023/09/13 06:27:44;;;;;;;1.80;1.70;;;14.40;99.90;;;;;;5059086;28;20081;-80
2023/09/13 06:30:10;;;;;;;3.72;1.27;;;14.40;99.90;;;;;;5033843;28;20067;-81
2023/09/13 06:32:36;;;;;;;5.13;1.70;;;14.40;99.90;;;;;;5044753;28;20037;-81
2023/09/13 06:35:02;;;;;;;2.65;1.83;;;14.40;99.90;;;;;;5042440;28;20043;-81
2023/09/13 06:37:27;;;;;;;2.13;1.20;;;14.40;99.90;;;;;;5043698;28;20059;-80
2023/09/13 06:39:54;;;;;;;4.43;1.40;;;14.30;99.90;;;;;;5043311;28;20079;-78
2023/09/13 06:42:20;;;;;;;5.70;1.10;;;14.40;99.90;;;;;;5042164;28;20040;-81
2023/09/13 06:44:45;;;;;;;1.60;1.23;;;14.30;99.90;;;;;;5044486;28;20090;-84
2023/09/13 06:47:11;;;;;;;5.07;1.30;;;14.40;99.90;;;;;;5050156;28;20063;-80
2023/09/13 06:49:36;;;;;;;4.20;1.67;;;14.40;99.90;;;;;;5043051;28;20341;-82
2023/09/13 06:52:02;;;;;;;2.97;0.80;;;14.40;99.90;;;;;;5026947;28;20041;-78
2023/09/13 06:54:28;;;;;;;3.30;0.65;;;14.40;99.90;;;;;;5060156;28;20884;-78
2023/09/13 06:56:53;;;;;;;5.90;1.20;;;14.40;99.90;;;;;;5042665;28;20044;-78
2023/09/13 06:59:19;;;;;;;2.50;0.60;;;14.40;99.90;;;;;;5044353;28;20474;-78
2023/09/13 07:01:46;;;;;;;3.80;1.00;;;14.40;99.90;;;;;;5044252;28;20072;-78
2023/09/13 07:04:13;;;;;;;1.02;0.90;;;14.40;99.90;;;;;;5043989;28;20181;-78
2023/09/13 07:06:39;;;;;;;6.22;1.63;;;14.40;99.90;;;;;;5061630;28;20048;-79
2023/09/13 07:09:05;;;;;;;3.75;0.82;;;14.40;99.90;;;;;;5043529;28;20057;-78
2023/09/13 07:11:30;;;;;;;5.85;0.90;;;14.40;99.90;;;;;;5032097;28;20570;-78
2023/09/13 07:13:56;;;;;;;2.33;0.68;;;14.40;99.90;;;;;;5047374;28;20041;-77
2023/09/13 07:16:21;;;;;;;1.85;0.80;;;14.40;99.90;;;;;;5046651;28;20086;-77
2023/09/13 07:18:47;;;;;;;1.80;0.80;;;14.40;99.90;;;;;;5047902;28;20067;-78
2023/09/13 07:21:13;;;;;;;1.15;0.70;;;14.50;99.90;;;;;;5063577;28;20061;-77
2023/09/13 07:23:38;;;;;;;2.15;0.75;;;14.40;99.90;;;;;;5046733;28;20063;-78
2023/09/13 07:26:04;;;;;;;2.95;1.25;;;14.50;99.90;;;;;;5064111;28;20128;-77
2023/09/13 07:28:29;;;;;;;2.03;0.75;;;14.50;99.90;;;;;;5064592;28;20490;-77
2023/09/13 07:30:55;;;;;;;3.58;1.02;;;14.60;99.90;;;;;;5064045;28;20494;-78
2023/09/13 07:33:21;;;;;;;3.97;0.80;;;14.60;99.90;;;;;;5046740;28;20057;-77
2023/09/13 07:35:46;;;;;;;4.00;0.63;;;14.70;99.90;;;;;;5064394;28;20044;-78
2023/09/13 07:38:12;;;;;;;3.50;1.33;;;14.70;99.90;;;;;;5045916;28;20049;-78
2023/09/13 07:40:38;;;;;;;5.05;1.00;;;14.80;99.90;;;;;;5063251;28;20544;-77
2023/09/13 07:43:06;;;;;;;3.83;0.95;;;14.80;99.90;;;;;;5063795;28;20401;-77
2023/09/13 07:45:33;;;;;;;2.53;0.57;;;14.80;99.90;;;;;;5046168;28;20036;-77
2023/09/13 07:48:00;;;;;;;3.30;1.10;;;14.80;99.90;;;;;;5029780;28;20067;-78
2023/09/13 07:50:29;;;;;;;1.83;0.88;;;14.80;99.90;;;;;;5063888;28;20037;-77
2023/09/13 07:52:55;;;;;;;10.13;1.88;;;14.90;99.90;;;;;;5063843;28;20041;-77
2023/09/13 07:55:21;;;;;;;8.73;1.45;;;14.90;99.90;;;;;;5063629;28;20082;-77
2023/09/13 07:57:47;;;;;;;5.18;1.60;;;14.90;99.90;;;;;;5045235;28;20096;-77
2023/09/13 08:00:13;;;;;;;10.55;1.80;;;14.90;99.90;;;;;;5045542;28;20441;-77
2023/09/13 08:02:41;;;;;;;2.75;1.33;;;14.80;99.90;;;;;;5064110;28;20040;-78
2023/09/13 08:05:07;;;;;;;4.70;1.17;;;14.80;99.90;;;;;;5046725;28;20048;-77
2023/09/13 08:07:33;;;;;;;3.72;1.60;;;14.70;99.90;;;;;;5028281;28;20550;-77
2023/09/13 08:09:59;;;;;;;4.72;1.70;;;14.60;99.90;;;;;;5045757;28;20053;-77
2023/09/13 08:12:24;;;;;;;3.35;1.98;;;14.60;99.90;;;;;;5028161;28;20406;-77
2023/09/13 08:14:50;;;;;;;7.40;2.47;;;14.60;99.90;;;;;;5045359;28;20414;-77
2023/09/13 08:17:15;;;;;;;8.85;1.90;;;14.70;99.90;;;;;;5045574;28;20456;-78
2023/09/13 08:19:41;;;;;;;7.68;2.72;;;14.70;99.90;;;;;;5045633;28;20037;-78
2023/09/13 08:22:08;;;;;;;4.78;1.50;;;14.60;99.90;;;;;;5063129;28;20414;-77
2023/09/13 08:24:34;;;;;;;6.10;3.10;;;14.60;99.90;;;;;;5063766;28;20115;-77
2023/09/13 08:26:59;;;;;;;5.18;1.65;;;14.50;99.90;;;;;;5044319;28;20182;-77
2023/09/13 08:29:25;;;;;;;5.00;1.67;;;14.60;99.90;;;;;;5063141;28;20041;-77
2023/09/13 08:31:50;;;;;;;5.53;1.67;;;14.60;99.90;;;;;;5045577;28;20244;-77
2023/09/13 08:34:16;;;;;;;4.80;1.70;;;14.50;99.90;;;;;;5063292;28;20375;-77
2023/09/13 08:36:41;;;;;;;5.43;1.88;;;14.60;99.90;;;;;;5063201;28;20438;-78
2023/09/13 08:39:07;;;;;;;5.70;2.60;;;14.50;99.90;;;;;;5045635;28;20056;-77
2023/09/13 08:41:33;;;;;;;2.70;1.90;;;14.50;99.90;;;;;;5044922;28;20103;-77
2023/09/13 08:44:03;;;;;;;5.65;1.50;;;14.50;99.90;;;;;;5063078;28;20123;-77
2023/09/13 08:46:31;;;;;;;4.82;1.50;;;14.60;99.90;;;;;;5044940;28;20067;-77
2023/09/13 08:48:57;;;;;;;8.77;1.23;;;14.60;99.90;;;;;;5063204;28;20072;-77
2023/09/13 08:51:24;;;;;;;2.15;1.58;;;14.60;99.90;;;;;;5044525;28;20036;-77
2023/09/13 08:53:53;;;;;;;4.13;2.10;;;14.60;99.90;;;;;;5045110;28;20585;-77
2023/09/13 08:56:20;;;;;;;3.53;1.73;;;14.50;99.90;;;;;;5043517;28;20094;-77
2023/09/13 08:58:46;;;;;;;6.43;1.90;;;14.50;99.90;;;;;;5063316;28;20410;-77
2023/09/13 09:01:13;;;;;;;1.92;1.05;;;14.40;99.90;;;;;;5062655;28;20052;-77
2023/09/13 09:03:40;;;;;;;3.67;1.50;;;14.40;99.90;;;;;;5044471;28;20051;-78
2023/09/13 09:06:06;;;;;;;2.58;1.95;;;14.40;99.90;;;;;;5044844;28;20037;-76
2023/09/13 09:08:37;;;;;;;4.40;1.45;;;14.40;99.90;;;;;;5044697;28;20048;-77
2023/09/13 09:11:04;;;;;;;3.57;1.20;;;14.50;99.90;;;;;;5043648;28;20119;-76
2023/09/13 09:13:31;;;;;;;4.70;1.38;;;14.40;99.90;;;;;;5044621;28;20044;-77
2023/09/13 09:15:59;;;;;;;5.68;1.60;;;14.50;99.90;;;;;;5044427;28;20052;-76
2023/09/13 09:18:26;;;;;;;3.47;1.38;;;14.50;99.90;;;;;;5061989;28;20295;-77
2023/09/13 09:20:52;;;;;;;3.20;1.67;;;14.50;99.90;;;;;;5044370;28;20123;-77
2023/09/13 09:23:19;;;;;;;2.05;1.27;;;14.60;99.90;;;;;;5044247;28;20512;-77
2023/09/13 09:25:44;;;;;;;5.93;1.90;;;14.60;99.90;;;;;;5043026;28;20043;-77
2023/09/13 09:28:10;;;;;;;3.80;1.05;;;14.60;99.90;;;;;;5044258;28;20398;-77
2023/09/13 09:30:36;;;;;;;4.15;1.30;;;14.60;99.90;;;;;;5044662;28;20051;-76
2023/09/13 09:33:06;;;;;;;4.10;1.20;;;14.60;99.90;;;;;;5043767;28;20048;-76
2023/09/13 09:35:36;;;;;;;1.50;1.15;;;14.50;99.90;;;;;;5043698;28;21463;-77
2023/09/13 09:38:03;;;;;;;7.55;1.95;;;14.60;99.90;;;;;;5063342;28;20105;-77
2023/09/13 09:40:36;;;;;;;5.40;2.00;;;14.60;99.90;;;;;;5061978;28;20513;-77
2023/09/13 09:43:02;;;;;;;2.03;1.10;;;14.70;99.90;;;;;;5061456;28;20036;-77
2023/09/13 09:45:27;;;;;;;2.20;1.17;;;14.80;99.90;;;;;;5060850;28;20119;-77
2023/09/13 09:47:55;;;;;;;2.90;1.52;;;14.80;99.90;;;;;;5044542;28;20086;-77
2023/09/13 09:50:21;;;;;;;3.95;1.20;;;14.90;99.90;;;;;;5043707;28;20041;-77
2023/09/13 09:52:50;;;;;;;2.83;1.73;;;14.90;99.90;;;;;;5061633;28;20044;-77
2023/09/13 09:55:21;;;;;;;4.95;1.70;;;14.90;99.90;;;;;;5059804;28;20041;-78
2023/09/13 09:57:48;;;;;;;3.90;1.70;;;15.00;99.90;;;;;;5040898;28;20133;-78
2023/09/13 10:00:14;;;;;;;2.13;1.20;;;15.00;99.90;;;;;;5060930;28;20032;-78
2023/09/13 10:02:40;;;;;;;7.63;2.60;;;15.00;99.90;;;;;;5043315;28;20093;-78
2023/09/13 10:05:06;;;;;;;5.63;1.60;;;15.00;99.90;;;;;;5043767;28;20044;-78
2023/09/13 10:07:42;;;;;;;7.80;2.40;;;15.10;99.90;;;;;;5042849;28;20487;-78
2023/09/13 10:10:11;;;;;;;2.80;1.23;;;15.10;99.90;;;;;;5060863;28;20119;-78
2023/09/13 10:12:50;;;;;;;3.90;1.88;;;15.20;99.90;;;;;;5060824;28;20119;-78
2023/09/13 10:15:18;;;;;;;3.75;1.92;;;15.20;99.90;;;;;;5061472;28;20045;-78
2023/09/13 10:17:46;;;;;;;4.15;1.30;;;15.20;99.90;;;;;;5061482;28;20097;-78
2023/09/13 10:20:16;;;;;;;4.55;1.73;;;15.30;99.90;;;;;;5026453;28;20101;-78
2023/09/13 10:22:42;;;;;;;6.53;1.65;;;15.30;99.90;;;;;;5061927;28;20122;-78
2023/09/13 10:25:11;;;;;;;3.10;1.40;;;15.40;99.90;;;;;;5060216;28;20036;-78
2023/09/13 10:27:39;;;;;;;3.00;1.33;;;15.40;99.90;;;;;;5043315;28;20076;-78
2023/09/13 10:30:08;;;;;;;2.50;1.20;;;15.50;99.90;;;;;;5043540;28;20066;-78
2023/09/13 10:32:45;;;;;;;4.32;2.22;;;15.60;99.90;;;;;;5042829;28;20097;-78
2023/09/13 10:35:13;;;;;;;3.80;1.40;;;15.60;99.90;;;;;;5042250;28;20044;-78
2023/09/13 10:37:45;;;;;;;4.55;1.20;;;15.70;99.90;;;;;;5039397;28;20037;-79
2023/09/13 10:40:20;;;;;;;4.28;1.63;;;15.80;99.90;;;;;;5042893;28;20049;-79
2023/09/13 10:42:46;;;;;;;2.47;0.98;;;15.80;99.90;;;;;;5043089;28;20054;-78
2023/09/13 10:45:17;;;;;;;1.30;1.00;;;15.90;99.90;;;;;;5048597;28;20032;-78
2023/09/13 10:47:43;;;;;;;3.08;1.15;;;15.90;99.90;;;;;;5062578;28;20500;-78
2023/09/13 10:50:09;;;;;;;1.80;0.95;;;15.90;99.90;;;;;;5067009;28;20119;-79
2023/09/13 10:52:35;;;;;;;3.90;1.10;;;16.00;99.90;;;;;;5068804;28;20153;-78
2023/09/13 10:55:06;;;;;;;4.13;1.40;;;16.00;99.90;;;;;;5049700;28;20036;-78
2023/09/13 10:57:32;;;;;;;2.72;0.98;;;16.10;99.90;;;;;;5049037;28;20540;-79
2023/09/13 10:59:59;;;;;;;1.90;1.25;;;16.10;99.90;;;;;;5068048;28;20036;-79
2023/09/13 11:02:26;;;;;;;3.33;1.10;;;16.20;99.90;;;;;;5068498;28;20437;-79
2023/09/13 11:04:52;;;;;;;3.13;1.42;;;16.30;99.90;;;;;;5068436;28;20158;-78
2023/09/13 11:07:18;;;;;;;2.38;1.27;;;16.20;99.90;;;;;;5068063;28;20134;-78
2023/09/13 11:09:45;;;;;;;3.25;1.08;;;16.30;99.90;;;;;;5068505;28;20041;-78
2023/09/13 11:12:12;;;;;;;13.13;1.70;;;16.30;99.90;;;;;;5049382;28;20174;-79
2023/09/13 11:14:46;;;;;;;2.35;1.10;;;16.40;99.90;;;;;;5050430;28;20233;-78
2023/09/13 11:17:37;;;;;;;3.10;0.77;;;16.40;99.90;;;;;;5049799;28;20045;-78
2023/09/13 11:20:38;;;;;;;2.33;0.82;;;16.40;99.90;;;;;;5068583;28;20101;-79
2023/09/13 11:23:18;;;;;;;3.85;0.93;;;16.40;99.90;;;;;;5049744;28;20040;-78
2023/09/13 11:26:02;;;;;;;2.47;0.70;;;16.40;99.90;;;;;;5047422;28;20525;-78
2023/09/13 11:28:37;;;;;;;2.72;0.85;;;16.30;99.90;;;;;;5065331;28;20048;-77
2023/09/13 11:31:04;;;;;;;1.52;1.02;;;16.40;99.90;;;;;;5030315;28;20043;-78
2023/09/13 11:33:37;;;;;;;2.47;1.27;;;16.40;99.90;;;;;;5041937;28;20036;-77
2023/09/13 11:36:03;;;;;;;4.32;1.42;;;16.30;99.90;;;;;;5033734;28;20042;-78
2023/09/13 11:38:30;;;;;;;3.15;0.68;;;16.30;99.90;;;;;;5068198;28;20056;-78
2023/09/13 11:40:58;;;;;;;4.13;0.98;;;16.30;99.90;;;;;;5064143;28;20059;-78
2023/09/13 11:43:28;;;;;;;3.75;1.35;;;16.30;99.90;;;;;;5041063;28;20407;-78
2023/09/13 11:45:58;;;;;;;2.20;1.42;;;16.30;99.90;;;;;;5067962;28;20098;-78
2023/09/13 11:48:26;;;;;;;3.97;0.80;;;16.30;99.90;;;;;;5049447;28;20040;-78
2023/09/13 11:50:52;;;;;;;2.15;1.27;;;16.40;99.90;;;;;;5032491;28;20048;-78
2023/09/13 11:53:26;;;;;;;3.17;1.13;;;16.40;99.90;;;;;;5043912;28;20271;-78
2023/09/13 11:55:58;;;;;;;5.35;0.82;;;16.40;99.90;;;;;;5046742;28;20045;-78
2023/09/13 11:58:37;;;;;;;;;;;16.60;99.90;;;;;;5043298;28;20119;-75
2023/09/13 12:01:05;;;;;;;2.22;0.80;;;16.60;99.90;;;;;;5045884;28;19927;-76
2023/09/13 12:03:33;;;;;;;1.50;0.70;;;16.60;99.90;;;;;;5060385;28;20104;-75
2023/09/13 12:05:59;;;;;;;5.70;1.05;;;16.60;99.90;;;;;;5063809;28;20579;-77
2023/09/13 12:08:29;;;;;;;3.65;0.75;;;16.60;99.90;;;;;;5063404;28;20079;-76
2023/09/13 12:11:01;;;;;;;1.40;0.65;;;16.60;99.90;;;;;;5062517;28;20521;-75
2023/09/13 12:13:59;;;;;;;;;;;16.60;99.90;;;;;;5029694;28;20064;-76
2023/09/13 12:16:25;;;;;;;2.25;1.20;;;16.60;99.90;;;;;;4982871;28;19924;-77
2023/09/13 12:18:50;;;;;;;3.00;0.73;;;16.60;99.90;;;;;;5056967;28;20047;-74
2023/09/13 12:21:17;;;;;;;2.10;1.88;;;16.60;99.90;;;;;;5064142;28;20408;-76
2023/09/13 12:23:46;;;;;;;3.28;1.25;;;16.50;99.90;;;;;;5062358;28;20192;-79
2023/09/13 12:26:15;;;;;;;6.70;1.20;;;16.60;99.90;;;;;;5042432;28;20083;-79
2023/09/13 12:28:41;;;;;;;3.13;0.88;;;16.60;99.90;;;;;;5055581;28;20041;-79
2023/09/13 12:31:09;;;;;;;1.55;0.70;;;16.60;99.90;;;;;;5065687;28;20131;-78
2023/09/13 12:33:41;;;;;;;1.77;0.63;;;16.70;99.90;;;;;;5044858;28;20043;-78
2023/09/13 12:36:07;;;;;;;;;;;16.80;99.90;;;;;;5030632;28;20036;-78
2023/09/13 12:38:42;;;;;;;3.03;0.65;;;16.80;99.90;;;;;;5047359;28;19920;-78
2023/09/13 12:41:19;;;;;;;1.85;0.80;;;16.70;99.90;;;;;;5045719;28;20036;-79
2023/09/13 12:43:48;;;;;;;4.78;1.17;;;16.60;99.90;;;;;;5044167;28;20052;-77
2023/09/13 12:46:18;;;;;;;3.08;1.02;;;16.50;99.90;;;;;;5045540;28;20128;-77
2023/09/13 12:48:45;;;;;;;3.55;0.82;;;16.50;99.90;;;;;;5037726;28;20072;-77
2023/09/13 12:51:16;;;;;;;4.13;1.38;;;16.40;99.90;;;;;;5063449;28;20402;-76
2023/09/13 12:53:43;;;;;;;3.70;0.65;;;16.30;99.90;;;;;;5062796;28;20506;-77